sensor_id;sensor_type;location;lat;lon;timestamp;temperature;humidity
18777;DHT22;9517;51.174;4.160;2022-11-20T00:01:10;5.50;99.90
18777;DHT22;9517;51.174;4.160;2022-11-20T00:03:40;5.30;99.90
18777;DHT22;9517;51.174;4.160;2022-11-20T00:06:09;5.30;99.90
18777;DHT22;9517;51.174;4.160;2022-11-20T00:08:37;5.30;99.90
18777;DHT22;9517;51.174;4.160;2022-11-20T00:11:08;5.50;99.90
18777;DHT22;9517;51.174;4.160;2022-11-20T00:13:36;5.40;99.90
18777;DHT22;9517;51.174;4.160;2022-11-20T00:16:06;5.40;99.90
18777;DHT22;9517;51.174;4.160;2022-11-20T00:18:34;5.40;99.90
18777;DHT22;9517;51.174;4.160;2022-11-20T00:21:03;5.30;99.90
18777;DHT22;9517;51.174;4.160;2022-11-20T00:23:31;5.30;99.90
18777;DHT22;9517;51.174;4.160;2022-11-20T00:26:02;5.20;99.90
18777;DHT22;9517;51.174;4.160;2022-11-20T00:28:33;5.30;99.90
18777;DHT22;9517;51.174;4.160;2022-11-20T00:31:02;5.20;99.90
18777;DHT22;9517;51.174;4.160;2022-11-20T00:33:30;5.20;99.90
18777;DHT22;9517;51.174;4.160;2022-11-20T00:36:04;5.30;99.90
18777;DHT22;9517;51.174;4.160;2022-11-20T00:38:34;5.30;99.90
18777;DHT22;9517;51.174;4.160;2022-11-20T00:41:03;5.20;99.90
18777;DHT22;9517;51.174;4.160;2022-11-20T00:43:32;5.30;99.90
18777;DHT22;9517;51.174;4.160;2022-11-20T00:46:01;5.30;99.90
18777;DHT22;9517;51.174;4.160;2022-11-20T00:48:28;5.30;99.90
18777;DHT22;9517;51.174;4.160;2022-11-20T00:50:56;5.30;99.90
18777;DHT22;9517;51.174;4.160;2022-11-20T00:53:23;5.20;99.90
18777;DHT22;9517;51.174;4.160;2022-11-20T00:55:54;5.30;99.90
18777;DHT22;9517;51.174;4.160;2022-11-20T00:58:22;5.30;99.90
18777;DHT22;9517;51.174;4.160;2022-11-20T01:00:51;5.20;99.90
18777;DHT22;9517;51.174;4.160;2022-11-20T01:03:18;5.10;99.90
18777;DHT22;9517;51.174;4.160;2022-11-20T01:05:45;5.10;99.90
18777;DHT22;9517;51.174;4.160;2022-11-20T01:08:12;5.20;99.90
18777;DHT22;9517;51.174;4.160;2022-11-20T01:10:39;5.10;99.90
18777;DHT22;9517;51.174;4.160;2022-11-20T01:13:07;5.10;99.90
18777;DHT22;9517;51.174;4.160;2022-11-20T01:15:53;5.10;99.90
18777;DHT22;9517;51.174;4.160;2022-11-20T01:18:20;5.10;99.90
18777;DHT22;9517;51.174;4.160;2022-11-20T01:20:47;5.20;99.90
18777;DHT22;9517;51.174;4.160;2022-11-20T01:23:14;5.10;99.90
18777;DHT22;9517;51.174;4.160;2022-11-20T01:25:41;5.10;99.90
18777;DHT22;9517;51.174;4.160;2022-11-20T01:28:08;5.10;99.90
18777;DHT22;9517;51.174;4.160;2022-11-20T01:30:35;5.10;99.90
18777;DHT22;9517;51.174;4.160;2022-11-20T01:33:04;5.00;99.90
18777;DHT22;9517;51.174;4.160;2022-11-20T01:35:31;5.00;99.90
18777;DHT22;9517;51.174;4.160;2022-11-20T01:38:01;5.00;99.90
18777;DHT22;9517;51.174;4.160;2022-11-20T01:40:28;5.00;99.90
18777;DHT22;9517;51.174;4.160;2022-11-20T01:43:12;5.00;99.90
18777;DHT22;9517;51.174;4.160;2022-11-20T01:46:08;5.00;99.90
18777;DHT22;9517;51.174;4.160;2022-11-20T01:48:47;5.10;99.90
18777;DHT22;9517;51.174;4.160;2022-11-20T01:51:20;5.10;99.90
18777;DHT22;9517;51.174;4.160;2022-11-20T01:53:48;5.10;99.90
18777;DHT22;9517;51.174;4.160;2022-11-20T01:56:17;5.00;99.90
18777;DHT22;9517;51.174;4.160;2022-11-20T01:58:47;5.00;99.90
18777;DHT22;9517;51.174;4.160;2022-11-20T02:01:15;4.90;99.90
18777;DHT22;9517;51.174;4.160;2022-11-20T02:03:47;4.90;99.90
18777;DHT22;9517;51.174;4.160;2022-11-20T02:06:19;4.90;99.90
18777;DHT22;9517;51.174;4.160;2022-11-20T02:08:46;4.90;99.90
18777;DHT22;9517;51.174;4.160;2022-11-20T02:11:13;5.00;99.90
18777;DHT22;9517;51.174;4.160;2022-11-20T02:13:40;5.00;99.90
18777;DHT22;9517;51.174;4.160;2022-11-20T02:16:16;5.00;99.90
18777;DHT22;9517;51.174;4.160;2022-11-20T02:18:45;5.10;99.90
18777;DHT22;9517;51.174;4.160;2022-11-20T02:21:27;4.80;99.90
18777;DHT22;9517;51.174;4.160;2022-11-20T02:24:02;5.10;99.90
18777;DHT22;9517;51.174;4.160;2022-11-20T02:26:32;4.90;99.90
18777;DHT22;9517;51.174;4.160;2022-11-20T02:29:02;4.70;99.90
18777;DHT22;9517;51.174;4.160;2022-11-20T02:31:31;4.70;99.90
18777;DHT22;9517;51.174;4.160;2022-11-20T02:34:00;4.50;99.90
18777;DHT22;9517;51.174;4.160;2022-11-20T02:36:28;4.60;99.90
18777;DHT22;9517;51.174;4.160;2022-11-20T02:38:56;4.50;99.90
18777;DHT22;9517;51.174;4.160;2022-11-20T02:41:32;4.60;99.90
18777;DHT22;9517;51.174;4.160;2022-11-20T02:43:59;4.60;99.90
18777;DHT22;9517;51.174;4.160;2022-11-20T02:46:27;4.60;99.90
18777;DHT22;9517;51.174;4.160;2022-11-20T02:48:54;4.80;99.90
18777;DHT22;9517;51.174;4.160;2022-11-20T02:51:21;4.80;99.90
18777;DHT22;9517;51.174;4.160;2022-11-20T02:53:48;4.80;99.90
18777;DHT22;9517;51.174;4.160;2022-11-20T02:56:15;4.50;99.90
18777;DHT22;9517;51.174;4.160;2022-11-20T02:58:44;4.40;99.90
18777;DHT22;9517;51.174;4.160;2022-11-20T03:01:11;4.40;99.90
18777;DHT22;9517;51.174;4.160;2022-11-20T03:03:38;4.40;99.90
18777;DHT22;9517;51.174;4.160;2022-11-20T03:06:06;4.30;99.90
18777;DHT22;9517;51.174;4.160;2022-11-20T03:08:33;4.30;99.90
18777;DHT22;9517;51.174;4.160;2022-11-20T03:11:05;4.30;99.90
18777;DHT22;9517;51.174;4.160;2022-11-20T03:13:32;4.30;99.90
18777;DHT22;9517;51.174;4.160;2022-11-20T03:16:07;4.20;99.90
18777;DHT22;9517;51.174;4.160;2022-11-20T03:18:34;4.10;99.90
18777;DHT22;9517;51.174;4.160;2022-11-20T03:21:01;4.00;99.90
18777;DHT22;9517;51.174;4.160;2022-11-20T03:23:30;4.00;99.90
18777;DHT22;9517;51.174;4.160;2022-11-20T03:26:08;4.10;99.90
18777;DHT22;9517;51.174;4.160;2022-11-20T03:28:35;4.20;99.90
18777;DHT22;9517;51.174;4.160;2022-11-20T03:31:11;4.10;99.90
18777;DHT22;9517;51.174;4.160;2022-11-20T03:33:38;4.00;99.90
18777;DHT22;9517;51.174;4.160;2022-11-20T03:36:07;4.00;99.90
18777;DHT22;9517;51.174;4.160;2022-11-20T03:38:34;3.90;99.90
18777;DHT22;9517;51.174;4.160;2022-11-20T03:41:03;3.90;99.90
18777;DHT22;9517;51.174;4.160;2022-11-20T03:43:32;3.80;99.90
18777;DHT22;9517;51.174;4.160;2022-11-20T03:46:01;3.90;99.90
18777;DHT22;9517;51.174;4.160;2022-11-20T03:48:30;4.00;99.90
18777;DHT22;9517;51.174;4.160;2022-11-20T03:51:07;4.00;99.90
18777;DHT22;9517;51.174;4.160;2022-11-20T03:53:35;4.10;99.90
18777;DHT22;9517;51.174;4.160;2022-11-20T03:56:02;4.00;99.90
18777;DHT22;9517;51.174;4.160;2022-11-20T03:58:29;4.00;99.90
18777;DHT22;9517;51.174;4.160;2022-11-20T04:00:57;4.00;99.90
18777;DHT22;9517;51.174;4.160;2022-11-20T04:03:24;4.00;99.90
18777;DHT22;9517;51.174;4.160;2022-11-20T04:05:53;3.90;99.90
18777;DHT22;9517;51.174;4.160;2022-11-20T04:08:20;3.80;99.90
18777;DHT22;9517;51.174;4.160;2022-11-20T04:10:47;3.90;99.90
18777;DHT22;9517;51.174;4.160;2022-11-20T04:13:14;3.70;99.90
18777;DHT22;9517;51.174;4.160;2022-11-20T04:15:41;3.70;99.90
18777;DHT22;9517;51.174;4.160;2022-11-20T04:18:08;3.70;99.90
18777;DHT22;9517;51.174;4.160;2022-11-20T04:20:35;3.60;99.90
18777;DHT22;9517;51.174;4.160;2022-11-20T04:23:04;3.60;99.90
18777;DHT22;9517;51.174;4.160;2022-11-20T04:25:31;3.50;99.90
18777;DHT22;9517;51.174;4.160;2022-11-20T04:27:58;3.50;99.90
18777;DHT22;9517;51.174;4.160;2022-11-20T04:30:25;3.50;99.90
18777;DHT22;9517;51.174;4.160;2022-11-20T04:32:52;3.40;99.90
18777;DHT22;9517;51.174;4.160;2022-11-20T04:35:19;3.50;99.90
18777;DHT22;9517;51.174;4.160;2022-11-20T04:37:46;3.40;99.90
18777;DHT22;9517;51.174;4.160;2022-11-20T04:40:15;3.40;99.90
18777;DHT22;9517;51.174;4.160;2022-11-20T04:42:42;3.40;99.90
18777;DHT22;9517;51.174;4.160;2022-11-20T04:45:11;3.60;99.90
18777;DHT22;9517;51.174;4.160;2022-11-20T04:47:38;3.60;99.90
18777;DHT22;9517;51.174;4.160;2022-11-20T04:50:06;3.70;99.90
18777;DHT22;9517;51.174;4.160;2022-11-20T04:52:33;3.70;99.90
18777;DHT22;9517;51.174;4.160;2022-11-20T04:55:00;3.90;99.90
18777;DHT22;9517;51.174;4.160;2022-11-20T04:57:28;4.00;99.90
18777;DHT22;9517;51.174;4.160;2022-11-20T04:59:55;4.00;99.90
18777;DHT22;9517;51.174;4.160;2022-11-20T05:02:23;4.10;99.90
18777;DHT22;9517;51.174;4.160;2022-11-20T05:04:50;4.20;99.90
18777;DHT22;9517;51.174;4.160;2022-11-20T05:07:17;4.30;99.90
18777;DHT22;9517;51.174;4.160;2022-11-20T05:09:44;4.40;99.90
18777;DHT22;9517;51.174;4.160;2022-11-20T05:12:11;4.60;99.90
18777;DHT22;9517;51.174;4.160;2022-11-20T05:14:39;4.70;99.90
18777;DHT22;9517;51.174;4.160;2022-11-20T05:17:10;4.80;99.90
18777;DHT22;9517;51.174;4.160;2022-11-20T05:19:37;4.80;99.90
18777;DHT22;9517;51.174;4.160;2022-11-20T05:22:04;4.90;99.90
18777;DHT22;9517;51.174;4.160;2022-11-20T05:24:32;4.90;99.90
18777;DHT22;9517;51.174;4.160;2022-11-20T05:26:59;4.90;99.90
18777;DHT22;9517;51.174;4.160;2022-11-20T05:29:25;4.90;99.90
18777;DHT22;9517;51.174;4.160;2022-11-20T05:31:54;4.80;99.90
18777;DHT22;9517;51.174;4.160;2022-11-20T05:34:21;4.70;99.90
18777;DHT22;9517;51.174;4.160;2022-11-20T05:36:48;4.60;99.90
18777;DHT22;9517;51.174;4.160;2022-11-20T05:39:15;4.70;99.90
18777;DHT22;9517;51.174;4.160;2022-11-20T05:41:42;4.80;99.90
18777;DHT22;9517;51.174;4.160;2022-11-20T05:44:10;4.80;99.90
18777;DHT22;9517;51.174;4.160;2022-11-20T05:46:37;4.70;99.90
18777;DHT22;9517;51.174;4.160;2022-11-20T05:49:06;4.70;99.90
18777;DHT22;9517;51.174;4.160;2022-11-20T05:51:33;4.70;99.90
18777;DHT22;9517;51.174;4.160;2022-11-20T05:54:00;4.60;99.90
18777;DHT22;9517;51.174;4.160;2022-11-20T05:56:27;4.60;99.90
18777;DHT22;9517;51.174;4.160;2022-11-20T05:58:54;4.60;99.90
18777;DHT22;9517;51.174;4.160;2022-11-20T06:01:22;4.50;99.90
18777;DHT22;9517;51.174;4.160;2022-11-20T06:03:50;4.60;99.90
18777;DHT22;9517;51.174;4.160;2022-11-20T06:06:19;4.70;99.90
18777;DHT22;9517;51.174;4.160;2022-11-20T06:08:47;4.60;99.90
18777;DHT22;9517;51.174;4.160;2022-11-20T06:11:15;4.70;99.90
18777;DHT22;9517;51.174;4.160;2022-11-20T06:13:42;4.80;99.90
18777;DHT22;9517;51.174;4.160;2022-11-20T06:16:10;4.80;99.90
18777;DHT22;9517;51.174;4.160;2022-11-20T06:18:38;5.00;99.90
18777;DHT22;9517;51.174;4.160;2022-11-20T06:21:07;5.00;99.90
18777;DHT22;9517;51.174;4.160;2022-11-20T06:23:37;5.00;99.90
18777;DHT22;9517;51.174;4.160;2022-11-20T06:26:06;4.90;99.90
18777;DHT22;9517;51.174;4.160;2022-11-20T06:28:33;4.90;99.90
18777;DHT22;9517;51.174;4.160;2022-11-20T06:31:00;4.90;99.90
18777;DHT22;9517;51.174;4.160;2022-11-20T06:33:28;5.00;99.90
18777;DHT22;9517;51.174;4.160;2022-11-20T06:35:56;4.80;99.90
18777;DHT22;9517;51.174;4.160;2022-11-20T06:38:24;4.90;99.90
18777;DHT22;9517;51.174;4.160;2022-11-20T06:40:52;4.90;99.90
18777;DHT22;9517;51.174;4.160;2022-11-20T06:43:21;4.90;99.90
18777;DHT22;9517;51.174;4.160;2022-11-20T06:45:51;4.90;99.90
18777;DHT22;9517;51.174;4.160;2022-11-20T06:48:19;5.00;99.90
18777;DHT22;9517;51.174;4.160;2022-11-20T06:50:49;5.10;99.90
18777;DHT22;9517;51.174;4.160;2022-11-20T06:53:16;5.10;99.90
18777;DHT22;9517;51.174;4.160;2022-11-20T06:55:44;5.10;99.90
18777;DHT22;9517;51.174;4.160;2022-11-20T06:58:15;5.00;99.90
18777;DHT22;9517;51.174;4.160;2022-11-20T07:00:43;5.20;99.90
18777;DHT22;9517;51.174;4.160;2022-11-20T07:06:40;5.10;99.90
18777;DHT22;9517;51.174;4.160;2022-11-20T07:09:18;5.20;99.90
18777;DHT22;9517;51.174;4.160;2022-11-20T07:12:08;5.30;99.90
18777;DHT22;9517;51.174;4.160;2022-11-20T07:14:48;5.30;99.90
18777;DHT22;9517;51.174;4.160;2022-11-20T07:26:11;5.50;99.90
18777;DHT22;9517;51.174;4.160;2022-11-20T07:28:38;5.60;99.90
18777;DHT22;9517;51.174;4.160;2022-11-20T07:31:13;5.50;99.90
18777;DHT22;9517;51.174;4.160;2022-11-20T07:33:42;5.60;99.90
18777;DHT22;9517;51.174;4.160;2022-11-20T07:36:39;5.70;99.90
18777;DHT22;9517;51.174;4.160;2022-11-20T07:39:06;5.70;99.90
18777;DHT22;9517;51.174;4.160;2022-11-20T07:41:35;5.80;99.90
18777;DHT22;9517;51.174;4.160;2022-11-20T07:44:34;5.80;99.90
18777;DHT22;9517;51.174;4.160;2022-11-20T07:47:19;5.80;99.90
18777;DHT22;9517;51.174;4.160;2022-11-20T07:49:46;5.90;99.90
18777;DHT22;9517;51.174;4.160;2022-11-20T07:52:14;6.00;99.90
18777;DHT22;9517;51.174;4.160;2022-11-20T07:54:41;6.00;99.90
18777;DHT22;9517;51.174;4.160;2022-11-20T07:57:09;5.90;99.90
18777;DHT22;9517;51.174;4.160;2022-11-20T07:59:36;5.90;99.90
18777;DHT22;9517;51.174;4.160;2022-11-20T08:02:04;5.90;99.90
18777;DHT22;9517;51.174;4.160;2022-11-20T08:04:33;5.90;99.90
18777;DHT22;9517;51.174;4.160;2022-11-20T08:07:00;5.90;99.90
18777;DHT22;9517;51.174;4.160;2022-11-20T08:09:29;6.10;99.90
18777;DHT22;9517;51.174;4.160;2022-11-20T08:11:59;6.20;99.90
18777;DHT22;9517;51.174;4.160;2022-11-20T08:15:08;6.20;99.90
18777;DHT22;9517;51.174;4.160;2022-11-20T08:17:40;6.30;99.90
18777;DHT22;9517;51.174;4.160;2022-11-20T08:20:12;6.30;99.90
18777;DHT22;9517;51.174;4.160;2022-11-20T08:22:45;6.30;99.90
18777;DHT22;9517;51.174;4.160;2022-11-20T08:32:03;6.20;99.90
18777;DHT22;9517;51.174;4.160;2022-11-20T09:00:38;6.70;99.90
18777;DHT22;9517;51.174;4.160;2022-11-20T09:03:05;6.70;99.90
18777;DHT22;9517;51.174;4.160;2022-11-20T09:05:32;6.70;99.90
18777;DHT22;9517;51.174;4.160;2022-11-20T09:07:59;6.70;99.90
18777;DHT22;9517;51.174;4.160;2022-11-20T09:10:29;6.70;99.90
18777;DHT22;9517;51.174;4.160;2022-11-20T09:12:56;6.60;99.90
18777;DHT22;9517;51.174;4.160;2022-11-20T09:15:24;6.50;99.90
18777;DHT22;9517;51.174;4.160;2022-11-20T09:17:55;6.70;99.90
18777;DHT22;9517;51.174;4.160;2022-11-20T09:20:24;6.80;99.90
18777;DHT22;9517;51.174;4.160;2022-11-20T09:22:54;6.90;99.90
18777;DHT22;9517;51.174;4.160;2022-11-20T09:25:22;7.00;99.90
18777;DHT22;9517;51.174;4.160;2022-11-20T09:27:55;6.90;99.90
18777;DHT22;9517;51.174;4.160;2022-11-20T09:30:22;6.70;99.90
18777;DHT22;9517;51.174;4.160;2022-11-20T09:32:49;6.80;99.90
18777;DHT22;9517;51.174;4.160;2022-11-20T09:35:18;6.80;99.90
18777;DHT22;9517;51.174;4.160;2022-11-20T09:37:46;6.70;99.90
18777;DHT22;9517;51.174;4.160;2022-11-20T09:40:19;6.80;99.90
18777;DHT22;9517;51.174;4.160;2022-11-20T09:42:54;6.60;99.90
18777;DHT22;9517;51.174;4.160;2022-11-20T09:45:37;6.70;99.90
18777;DHT22;9517;51.174;4.160;2022-11-20T09:48:25;6.70;99.90
18777;DHT22;9517;51.174;4.160;2022-11-20T09:51:02;6.80;99.90
18777;DHT22;9517;51.174;4.160;2022-11-20T09:53:39;6.80;99.90
18777;DHT22;9517;51.174;4.160;2022-11-20T09:56:10;6.90;99.90
18777;DHT22;9517;51.174;4.160;2022-11-20T09:58:40;7.00;99.90
18777;DHT22;9517;51.174;4.160;2022-11-20T10:01:12;7.10;99.90
18777;DHT22;9517;51.174;4.160;2022-11-20T10:03:49;7.20;99.90
18777;DHT22;9517;51.174;4.160;2022-11-20T10:06:30;7.20;99.90
18777;DHT22;9517;51.174;4.160;2022-11-20T10:09:04;7.10;99.90
18777;DHT22;9517;51.174;4.160;2022-11-20T10:11:51;7.40;99.90
18777;DHT22;9517;51.174;4.160;2022-11-20T10:14:37;7.50;99.90
18777;DHT22;9517;51.174;4.160;2022-11-20T10:17:19;7.50;99.90
18777;DHT22;9517;51.174;4.160;2022-11-20T10:20:10;7.60;99.90
18777;DHT22;9517;51.174;4.160;2022-11-20T10:23:02;7.60;99.90
18777;DHT22;9517;51.174;4.160;2022-11-20T10:25:38;7.70;99.90
18777;DHT22;9517;51.174;4.160;2022-11-20T10:28:29;7.70;99.90
18777;DHT22;9517;51.174;4.160;2022-11-20T10:31:09;7.90;99.90
18777;DHT22;9517;51.174;4.160;2022-11-20T10:33:46;8.10;99.90
18777;DHT22;9517;51.174;4.160;2022-11-20T10:36:22;8.20;99.90
18777;DHT22;9517;51.174;4.160;2022-11-20T10:38:56;8.30;99.90
18777;DHT22;9517;51.174;4.160;2022-11-20T10:41:28;8.20;99.90
18777;DHT22;9517;51.174;4.160;2022-11-20T10:44:02;8.20;99.90
18777;DHT22;9517;51.174;4.160;2022-11-20T10:46:37;8.30;99.90
18777;DHT22;9517;51.174;4.160;2022-11-20T10:49:12;8.50;99.90
18777;DHT22;9517;51.174;4.160;2022-11-20T10:51:49;8.50;99.90
18777;DHT22;9517;51.174;4.160;2022-11-20T10:54:26;8.50;99.90
18777;DHT22;9517;51.174;4.160;2022-11-20T10:57:06;8.60;99.90
18777;DHT22;9517;51.174;4.160;2022-11-20T11:00:05;8.40;99.90
18777;DHT22;9517;51.174;4.160;2022-11-20T11:02:51;8.50;99.90
18777;DHT22;9517;51.174;4.160;2022-11-20T11:05:33;8.60;99.90
18777;DHT22;9517;51.174;4.160;2022-11-20T11:08:03;8.70;99.90
18777;DHT22;9517;51.174;4.160;2022-11-20T11:10:54;8.70;99.90
18777;DHT22;9517;51.174;4.160;2022-11-20T11:13:24;8.80;99.90
18777;DHT22;9517;51.174;4.160;2022-11-20T11:15:52;9.00;99.90
18777;DHT22;9517;51.174;4.160;2022-11-20T11:18:24;9.00;99.90
18777;DHT22;9517;51.174;4.160;2022-11-20T11:20:52;9.00;99.90
18777;DHT22;9517;51.174;4.160;2022-11-20T11:23:30;9.00;99.90
18777;DHT22;9517;51.174;4.160;2022-11-20T11:26:01;9.20;99.90
18777;DHT22;9517;51.174;4.160;2022-11-20T11:28:29;9.40;99.90
18777;DHT22;9517;51.174;4.160;2022-11-20T11:30:56;9.40;99.90
18777;DHT22;9517;51.174;4.160;2022-11-20T11:33:30;9.40;99.90
18777;DHT22;9517;51.174;4.160;2022-11-20T11:36:16;9.40;99.90
18777;DHT22;9517;51.174;4.160;2022-11-20T11:39:28;9.40;99.90
18777;DHT22;9517;51.174;4.160;2022-11-20T11:41:58;9.60;99.90
18777;DHT22;9517;51.174;4.160;2022-11-20T11:44:28;9.90;99.90
18777;DHT22;9517;51.174;4.160;2022-11-20T11:47:23;10.40;99.90
18777;DHT22;9517;51.174;4.160;2022-11-20T11:50:01;10.50;99.90
18777;DHT22;9517;51.174;4.160;2022-11-20T11:52:29;10.50;99.90
18777;DHT22;9517;51.174;4.160;2022-11-20T11:55:02;10.60;99.90
18777;DHT22;9517;51.174;4.160;2022-11-20T11:57:41;10.20;99.90
18777;DHT22;9517;51.174;4.160;2022-11-20T12:00:13;10.30;99.90
18777;DHT22;9517;51.174;4.160;2022-11-20T12:02:53;10.10;99.90
18777;DHT22;9517;51.174;4.160;2022-11-20T12:05:39;9.70;99.90
18777;DHT22;9517;51.174;4.160;2022-11-20T12:12:02;9.30;99.90
18777;DHT22;9517;51.174;4.160;2022-11-20T12:14:55;9.20;99.90
18777;DHT22;9517;51.174;4.160;2022-11-20T12:17:32;9.20;99.90
18777;DHT22;9517;51.174;4.160;2022-11-20T12:20:34;9.10;99.90
18777;DHT22;9517;51.174;4.160;2022-11-20T12:36:23;8.40;99.90
18777;DHT22;9517;51.174;4.160;2022-11-20T12:55:36;8.40;99.90
18777;DHT22;9517;51.174;4.160;2022-11-20T12:58:26;8.50;99.90
18777;DHT22;9517;51.174;4.160;2022-11-20T13:01:28;8.40;99.90
18777;DHT22;9517;51.174;4.160;2022-11-20T13:04:44;8.30;99.90
18777;DHT22;9517;51.174;4.160;2022-11-20T13:07:35;8.30;99.90
18777;DHT22;9517;51.174;4.160;2022-11-20T13:10:18;8.30;99.90
18777;DHT22;9517;51.174;4.160;2022-11-20T13:12:56;8.30;99.90
18777;DHT22;9517;51.174;4.160;2022-11-20T13:19:14;8.30;99.90
18777;DHT22;9517;51.174;4.160;2022-11-20T13:28:36;8.30;99.90
18777;DHT22;9517;51.174;4.160;2022-11-20T17:12:31;8.40;99.90
18777;DHT22;9517;51.174;4.160;2022-11-20T17:15:00;8.40;99.90
18777;DHT22;9517;51.174;4.160;2022-11-20T17:17:28;8.40;99.90
18777;DHT22;9517;51.174;4.160;2022-11-20T17:19:55;8.30;99.90
18777;DHT22;9517;51.174;4.160;2022-11-20T17:22:22;8.30;99.90
18777;DHT22;9517;51.174;4.160;2022-11-20T17:24:49;8.20;99.90
18777;DHT22;9517;51.174;4.160;2022-11-20T17:27:16;8.20;99.90
18777;DHT22;9517;51.174;4.160;2022-11-20T17:29:46;8.20;99.90
18777;DHT22;9517;51.174;4.160;2022-11-20T17:32:13;8.20;99.90
18777;DHT22;9517;51.174;4.160;2022-11-20T17:34:40;8.20;99.90
18777;DHT22;9517;51.174;4.160;2022-11-20T17:37:10;8.20;99.90
18777;DHT22;9517;51.174;4.160;2022-11-20T17:39:37;8.30;99.90
18777;DHT22;9517;51.174;4.160;2022-11-20T17:42:05;8.30;99.90
18777;DHT22;9517;51.174;4.160;2022-11-20T17:44:50;8.30;99.90
18777;DHT22;9517;51.174;4.160;2022-11-20T17:47:18;8.30;99.90
18777;DHT22;9517;51.174;4.160;2022-11-20T17:49:45;8.30;99.90
18777;DHT22;9517;51.174;4.160;2022-11-20T17:52:12;8.10;99.90
18777;DHT22;9517;51.174;4.160;2022-11-20T17:54:39;8.00;99.90
18777;DHT22;9517;51.174;4.160;2022-11-20T17:57:08;8.00;99.90
18777;DHT22;9517;51.174;4.160;2022-11-20T17:59:54;8.00;99.90
18777;DHT22;9517;51.174;4.160;2022-11-20T18:02:21;7.90;99.90
18777;DHT22;9517;51.174;4.160;2022-11-20T18:07:42;7.90;99.90
18777;DHT22;9517;51.174;4.160;2022-11-20T18:10:15;7.90;99.90
18777;DHT22;9517;51.174;4.160;2022-11-20T18:12:42;7.90;99.90
18777;DHT22;9517;51.174;4.160;2022-11-20T18:15:11;7.90;99.90
18777;DHT22;9517;51.174;4.160;2022-11-20T18:17:38;7.80;99.90
18777;DHT22;9517;51.174;4.160;2022-11-20T18:20:06;7.80;99.90
18777;DHT22;9517;51.174;4.160;2022-11-20T18:22:35;7.70;99.90
18777;DHT22;9517;51.174;4.160;2022-11-20T18:25:03;7.60;99.90
18777;DHT22;9517;51.174;4.160;2022-11-20T18:27:31;7.60;99.90
18777;DHT22;9517;51.174;4.160;2022-11-20T18:29:58;7.60;99.90
18777;DHT22;9517;51.174;4.160;2022-11-20T18:32:27;7.70;99.90
18777;DHT22;9517;51.174;4.160;2022-11-20T18:34:54;7.70;99.90
18777;DHT22;9517;51.174;4.160;2022-11-20T18:37:21;7.70;99.90
18777;DHT22;9517;51.174;4.160;2022-11-20T18:39:49;7.70;99.90
18777;DHT22;9517;51.174;4.160;2022-11-20T18:42:16;7.60;99.90
18777;DHT22;9517;51.174;4.160;2022-11-20T18:45:01;7.70;99.90
18777;DHT22;9517;51.174;4.160;2022-11-20T18:47:32;7.60;99.90
18777;DHT22;9517;51.174;4.160;2022-11-20T20:58:53;7.50;99.90
18777;DHT22;9517;51.174;4.160;2022-11-20T21:01:21;7.40;99.90
18777;DHT22;9517;51.174;4.160;2022-11-20T21:03:52;7.50;99.90
18777;DHT22;9517;51.174;4.160;2022-11-20T21:06:19;7.50;99.90
18777;DHT22;9517;51.174;4.160;2022-11-20T21:08:47;7.40;99.90
18777;DHT22;9517;51.174;4.160;2022-11-20T21:11:16;7.40;99.90
18777;DHT22;9517;51.174;4.160;2022-11-20T21:13:44;7.40;99.90
18777;DHT22;9517;51.174;4.160;2022-11-20T21:16:14;7.40;99.90
18777;DHT22;9517;51.174;4.160;2022-11-20T21:18:42;7.30;99.90
18777;DHT22;9517;51.174;4.160;2022-11-20T21:21:11;7.30;99.90
18777;DHT22;9517;51.174;4.160;2022-11-20T21:23:56;7.30;99.90
18777;DHT22;9517;51.174;4.160;2022-11-20T21:26:23;7.20;99.90
18777;DHT22;9517;51.174;4.160;2022-11-20T21:28:50;7.30;99.90
18777;DHT22;9517;51.174;4.160;2022-11-20T21:31:20;7.20;99.90
18777;DHT22;9517;51.174;4.160;2022-11-20T21:33:50;7.20;99.90
18777;DHT22;9517;51.174;4.160;2022-11-20T21:36:19;7.20;99.90
18777;DHT22;9517;51.174;4.160;2022-11-20T21:38:47;7.30;99.90
18777;DHT22;9517;51.174;4.160;2022-11-20T21:41:14;7.20;99.90
18777;DHT22;9517;51.174;4.160;2022-11-20T21:43:42;7.30;99.90
18777;DHT22;9517;51.174;4.160;2022-11-20T21:46:10;7.30;99.90
18777;DHT22;9517;51.174;4.160;2022-11-20T21:48:40;7.40;99.90
18777;DHT22;9517;51.174;4.160;2022-11-20T21:51:09;7.40;99.90
18777;DHT22;9517;51.174;4.160;2022-11-20T21:53:36;7.40;99.90
18777;DHT22;9517;51.174;4.160;2022-11-20T21:56:18;7.40;99.90
18777;DHT22;9517;51.174;4.160;2022-11-20T21:58:45;7.30;99.90
18777;DHT22;9517;51.174;4.160;2022-11-20T22:01:14;7.20;99.90
18777;DHT22;9517;51.174;4.160;2022-11-20T22:03:46;7.20;99.90
18777;DHT22;9517;51.174;4.160;2022-11-20T22:06:14;7.20;99.90
18777;DHT22;9517;51.174;4.160;2022-11-20T22:08:41;7.20;99.90
18777;DHT22;9517;51.174;4.160;2022-11-20T22:11:10;7.20;99.90
18777;DHT22;9517;51.174;4.160;2022-11-20T22:13:37;7.20;99.90
18777;DHT22;9517;51.174;4.160;2022-11-20T22:16:22;7.10;99.90
18777;DHT22;9517;51.174;4.160;2022-11-20T22:18:52;7.10;99.90
18777;DHT22;9517;51.174;4.160;2022-11-20T22:21:21;7.00;99.90
18777;DHT22;9517;51.174;4.160;2022-11-20T22:23:49;7.00;99.90
18777;DHT22;9517;51.174;4.160;2022-11-20T22:26:18;7.00;99.90
18777;DHT22;9517;51.174;4.160;2022-11-20T22:28:46;7.00;99.90
18777;DHT22;9517;51.174;4.160;2022-11-20T22:31:14;7.00;99.90
18777;DHT22;9517;51.174;4.160;2022-11-20T22:33:41;7.00;99.90
18777;DHT22;9517;51.174;4.160;2022-11-20T22:36:11;7.00;99.90
18777;DHT22;9517;51.174;4.160;2022-11-20T22:38:39;7.10;99.90
18777;DHT22;9517;51.174;4.160;2022-11-20T22:41:08;7.10;99.90
18777;DHT22;9517;51.174;4.160;2022-11-20T22:43:36;7.10;99.90
18777;DHT22;9517;51.174;4.160;2022-11-20T22:46:05;7.20;99.90
18777;DHT22;9517;51.174;4.160;2022-11-20T22:48:34;7.10;99.90
18777;DHT22;9517;51.174;4.160;2022-11-20T22:51:03;7.10;99.90
18777;DHT22;9517;51.174;4.160;2022-11-20T22:53:32;7.10;99.90
18777;DHT22;9517;51.174;4.160;2022-11-20T22:55:59;7.00;99.90
18777;DHT22;9517;51.174;4.160;2022-11-20T22:58:27;7.00;99.90
18777;DHT22;9517;51.174;4.160;2022-11-20T23:00:55;7.00;99.90
18777;DHT22;9517;51.174;4.160;2022-11-20T23:03:22;7.10;99.90
18777;DHT22;9517;51.174;4.160;2022-11-20T23:05:49;7.20;99.90
18777;DHT22;9517;51.174;4.160;2022-11-20T23:08:16;7.30;99.90
18777;DHT22;9517;51.174;4.160;2022-11-20T23:10:44;7.30;99.90
18777;DHT22;9517;51.174;4.160;2022-11-20T23:13:11;7.40;99.90
18777;DHT22;9517;51.174;4.160;2022-11-20T23:15:38;7.40;99.90
18777;DHT22;9517;51.174;4.160;2022-11-20T23:18:05;7.50;99.90
18777;DHT22;9517;51.174;4.160;2022-11-20T23:20:34;7.50;99.90
18777;DHT22;9517;51.174;4.160;2022-11-20T23:23:01;7.60;99.90
18777;DHT22;9517;51.174;4.160;2022-11-20T23:25:28;7.60;99.90
18777;DHT22;9517;51.174;4.160;2022-11-20T23:27:57;7.50;99.90
18777;DHT22;9517;51.174;4.160;2022-11-20T23:30:24;7.60;99.90
18777;DHT22;9517;51.174;4.160;2022-11-20T23:32:51;7.60;99.90
18777;DHT22;9517;51.174;4.160;2022-11-20T23:35:18;7.60;99.90
18777;DHT22;9517;51.174;4.160;2022-11-20T23:37:45;7.60;99.90
18777;DHT22;9517;51.174;4.160;2022-11-20T23:40:12;7.50;99.90
18777;DHT22;9517;51.174;4.160;2022-11-20T23:42:39;7.50;99.90
18777;DHT22;9517;51.174;4.160;2022-11-20T23:45:28;7.50;99.90
18777;DHT22;9517;51.174;4.160;2022-11-20T23:47:55;7.50;99.90
18777;DHT22;9517;51.174;4.160;2022-11-20T23:50:22;7.50;99.90